createdAt,value
2019-01-16T00:02:29.114Z,101385.84
2019-01-16T00:05:32.514Z,101383.23
2019-01-16T00:08:21.272Z,101378.92
2019-01-16T00:11:07.159Z,101371.12
2019-01-16T00:14:13.547Z,101374.14
2019-01-16T00:17:04.821Z,101368.53
2019-01-16T00:19:45.032Z,101366.78
2019-01-16T00:22:32.089Z,101358.56
2019-01-16T00:25:23.067Z,101358.13
2019-01-16T00:28:26.277Z,101342.52
2019-01-16T00:31:13.130Z,101338.63
2019-01-16T00:33:50.925Z,101340.38
2019-01-16T00:36:45.315Z,101333.84
2019-01-16T00:39:33.623Z,101333.84
2019-01-16T00:42:24.687Z,101323.88
2019-01-16T00:45:11.480Z,101322.55
2019-01-16T00:48:01.197Z,101320.84
2019-01-16T00:50:52.578Z,101319.47
2019-01-16T00:53:40.849Z,101313.38
2019-01-16T00:56:44.167Z,101302.09
2019-01-16T00:59:41.350Z,101300.30
2019-01-16T01:02:38.480Z,101298.63
2019-01-16T01:05:19.495Z,101284.33
2019-01-16T01:08:07.751Z,101276.97
2019-01-16T01:10:48.964Z,101276.97
2019-01-16T01:13:28.851Z,101269.61
2019-01-16T01:19:10.895Z,101260.82
2019-01-16T01:21:58.673Z,101264.82
2019-01-16T01:24:46.965Z,101257.02
2019-01-16T01:27:35.248Z,101260.00
2019-01-16T01:30:23.411Z,101259.55
2019-01-16T01:33:08.579Z,101255.20
2019-01-16T01:35:56.933Z,101244.36
2019-01-16T01:38:43.902Z,101247.34
2019-01-16T01:41:30.620Z,101243.84
2019-01-16T01:44:28.054Z,101239.50
2019-01-16T01:47:25.668Z,101239.91
2019-01-16T01:50:13.912Z,101234.23
2019-01-16T01:53:00.890Z,101226.83
2019-01-16T01:55:42.601Z,101219.03
2019-01-16T01:58:46.155Z,101213.39
2019-01-16T02:01:43.289Z,101203.84
2019-01-16T02:04:30.285Z,101202.06
2019-01-16T02:07:17.373Z,101190.36
2019-01-16T02:10:04.401Z,101191.20
2019-01-16T02:12:55.690Z,101187.75
2019-01-16T02:15:55.859Z,101180.80
2019-01-16T02:18:33.333Z,101180.36
2019-01-16T02:21:24.541Z,101181.21
2019-01-16T02:24:12.795Z,101177.75
2019-01-16T02:26:52.679Z,101171.70
2019-01-16T02:29:51.381Z,101158.25
2019-01-16T02:32:39.664Z,101160.85
2019-01-16T02:35:34.356Z,101154.35
2019-01-16T02:38:15.194Z,101147.45
2019-01-16T02:41:03.514Z,101143.09
2019-01-16T02:43:54.671Z,101142.24
2019-01-16T02:47:01.066Z,101131.47
2019-01-16T02:50:01.668Z,101128.87
2019-01-16T02:52:59.208Z,101120.28
2019-01-16T02:56:05.562Z,101115.91
2019-01-16T02:58:45.854Z,101108.95
2019-01-16T03:01:40.005Z,101108.10
2019-01-16T03:04:40.168Z,101091.67
2019-01-16T03:07:31.298Z,101090.38
2019-01-16T03:10:18.278Z,101087.38
2019-01-16T03:13:14.108Z,101087.78
2019-01-16T03:16:02.366Z,101079.50
2019-01-16T03:19:04.507Z,101078.67
2019-01-16T03:21:58.991Z,101076.08
2019-01-16T03:24:50.027Z,101071.33
2019-01-16T03:27:36.867Z,101074.30
2019-01-16T03:30:26.567Z,101061.30
2019-01-16T03:33:33.312Z,101058.66
2019-01-16T03:36:33.836Z,101051.30
2019-01-16T03:39:11.133Z,101036.55
2019-01-16T03:42:02.451Z,101030.90
2019-01-16T03:44:51.050Z,101024.40
2019-01-16T03:47:38.222Z,101020.50
2019-01-16T03:50:26.313Z,101013.52
2019-01-16T03:53:26.683Z,101008.31
2019-01-16T03:56:06.896Z,101005.34
2019-01-16T03:59:10.424Z,101001.00
2019-01-16T04:01:57.100Z,100997.09
2019-01-16T04:04:37.930Z,100995.31
2019-01-16T04:07:14.415Z,100987.99
2019-01-16T04:10:05.741Z,100988.81
2019-01-16T04:13:02.953Z,100981.86
2019-01-16T04:16:03.302Z,100977.44
2019-01-16T04:18:51.619Z,100964.06
2019-01-16T04:21:38.607Z,100962.69
2019-01-16T04:24:24.347Z,100955.28
2019-01-16T04:27:21.960Z,100947.94
2019-01-16T04:30:19.334Z,100943.58
2019-01-16T04:33:07.635Z,100939.28
2019-01-16T04:35:58.668Z,100925.83
2019-01-16T04:38:39.154Z,100923.67
2019-01-16T04:41:19.717Z,100911.60
2019-01-16T04:44:06.942Z,100913.67
2019-01-16T04:46:55.212Z,100911.93
2019-01-16T04:49:46.413Z,100905.88
2019-01-16T04:52:38.273Z,100912.25
2019-01-16T04:55:38.894Z,100899.77
2019-01-16T04:58:30.086Z,100891.05
2019-01-16T05:01:30.379Z,100893.11
2019-01-16T05:04:17.577Z,100886.16
2019-01-16T05:07:04.337Z,100873.61
2019-01-16T05:09:44.555Z,100879.16
2019-01-16T05:12:31.623Z,100873.11
2019-01-16T05:15:13.864Z,100866.98
2019-01-16T05:18:11.329Z,100862.18
2019-01-16T05:20:54.006Z,100857.83
2019-01-16T05:23:44.307Z,100847.80
2019-01-16T05:26:31.199Z,100846.50
2019-01-16T05:29:17.856Z,100859.00
2019-01-16T05:32:10.280Z,100851.12
2019-01-16T05:34:57.413Z,100846.69
2019-01-16T05:37:40.921Z,100856.72
2019-01-16T05:40:32.436Z,100845.78
2019-01-16T05:43:20.749Z,100836.69
2019-01-16T05:46:06.191Z,100833.23
2019-01-16T05:48:52.991Z,100829.86
2019-01-16T05:51:47.343Z,100821.73
2019-01-16T05:54:35.622Z,100824.02
2019-01-16T05:57:26.695Z,100816.27
2019-01-16T06:00:13.725Z,100819.84
2019-01-16T06:03:00.989Z,100822.58
2019-01-16T06:05:40.457Z,100837.81
2019-01-16T06:08:37.991Z,100826.23
2019-01-16T06:11:35.409Z,100822.38
2019-01-16T06:14:14.035Z,100815.97
2019-01-16T06:17:01.046Z,100823.84
2019-01-16T06:20:00.301Z,100824.34
2019-01-16T06:22:48.624Z,100815.33
2019-01-16T06:25:30.052Z,100825.72
2019-01-16T06:28:30.336Z,100807.57
2019-01-16T06:31:33.819Z,100804.97
2019-01-16T06:34:17.888Z,100798.95
2019-01-16T06:37:16.100Z,100800.70
2019-01-16T06:40:13.140Z,100797.70
2019-01-16T06:43:13.512Z,100792.13
2019-01-16T06:45:51.460Z,100785.15
2019-01-16T06:48:39.747Z,100783.03
2019-01-16T06:51:37.386Z,100780.88
2019-01-16T06:54:26.475Z,100773.98
2019-01-16T06:57:20.642Z,100772.23
2019-01-16T07:00:07.604Z,100771.78
2019-01-16T07:02:54.180Z,100763.91
2019-01-16T07:05:48.633Z,100768.20
2019-01-16T07:08:36.889Z,100764.75
2019-01-16T07:11:34.093Z,100761.70
2019-01-16T07:14:21.551Z,100752.60
2019-01-16T07:17:03.090Z,100757.27
2019-01-16T07:19:54.542Z,100754.22
2019-01-16T07:22:48.764Z,100751.17
2019-01-16T07:25:37.044Z,100747.72
2019-01-16T07:28:34.318Z,100746.88
2019-01-16T07:31:20.164Z,100742.89
2019-01-16T07:34:20.696Z,100735.09
2019-01-16T07:37:07.780Z,100734.64
2019-01-16T07:39:59.159Z,100729.30
2019-01-16T07:42:56.430Z,100731.45
2019-01-16T07:45:50.625Z,100725.36
2019-01-16T07:48:29.491Z,100722.27
2019-01-16T07:51:20.147Z,100724.82
2019-01-16T07:54:07.165Z,100722.59
2019-01-16T07:56:58.549Z,100715.27
2019-01-16T07:59:52.689Z,100712.14
2019-01-16T08:02:39.463Z,100712.53
2019-01-16T08:05:30.874Z,100711.69
2019-01-16T08:08:07.236Z,100703.88
2019-01-16T08:10:53.693Z,100707.70
2019-01-16T08:13:40.656Z,100700.66
2019-01-16T08:16:41.165Z,100705.87
2019-01-16T08:19:41.633Z,100692.41
2019-01-16T08:22:39.092Z,100693.66
2019-01-16T08:25:27.422Z,100690.12
2019-01-16T08:28:05.275Z,100684.02
2019-01-16T08:30:59.714Z,100678.28
2019-01-16T08:33:49.183Z,100679.13
2019-01-16T08:36:35.996Z,100675.55
2019-01-16T08:39:29.902Z,100665.14
2019-01-16T08:42:16.678Z,100666.84
2019-01-16T08:45:12.583Z,100666.30
2019-01-16T08:48:03.942Z,100669.30
2019-01-16T08:50:50.887Z,100664.92
2019-01-16T08:53:40.328Z,100667.47
2019-01-16T08:56:37.549Z,100661.50
2019-01-16T08:59:28.839Z,100653.16
2019-01-16T09:02:14.870Z,100652.70
2019-01-16T09:05:02.005Z,100643.16
2019-01-16T09:08:01.675Z,100650.02
2019-01-16T09:10:48.438Z,100647.81
2019-01-16T09:13:45.982Z,100652.56
2019-01-16T09:16:32.697Z,100648.18
2019-01-16T09:19:24.117Z,100651.58
2019-01-16T09:22:12.420Z,100646.23
2019-01-16T09:25:00.799Z,100644.00
2019-01-16T09:27:52.101Z,100642.16
2019-01-16T09:30:47.175Z,100642.41
2019-01-16T09:33:34.219Z,100635.67
2019-01-16T09:36:20.963Z,100623.06
2019-01-16T09:39:08.368Z,100622.92
2019-01-16T09:42:11.682Z,100627.58
2019-01-16T09:45:02.795Z,100620.98
2019-01-16T09:47:57.067Z,100602.27
2019-01-16T09:50:47.990Z,100597.42
2019-01-16T09:53:27.312Z,100600.88
2019-01-16T09:56:25.458Z,100590.31
2019-01-16T09:59:25.705Z,100587.41
2019-01-16T10:02:23.470Z,100589.08
2019-01-16T10:05:11.715Z,100581.40
2019-01-16T10:07:50.533Z,100583.70
2019-01-16T10:10:50.852Z,100581.31
2019-01-16T10:13:37.947Z,100579.46
2019-01-16T10:16:38.065Z,100588.81
2019-01-16T10:19:41.591Z,100563.77
2019-01-16T10:22:23.734Z,100563.82
2019-01-16T10:25:09.684Z,100558.45
2019-01-16T10:28:06.825Z,100548.48
2019-01-16T10:30:58.029Z,100552.49
2019-01-16T10:33:55.272Z,100563.77
2019-01-16T10:36:54.549Z,100562.72
2019-01-16T10:39:48.632Z,100582.89
2019-01-16T10:42:26.408Z,100587.70
2019-01-16T10:45:05.887Z,100577.11
2019-01-16T10:48:09.371Z,100577.95
2019-01-16T10:51:03.319Z,100597.83
2019-01-16T10:53:56.709Z,100603.27
2019-01-16T10:56:45.070Z,100609.06
2019-01-16T10:59:51.724Z,100604.86
2019-01-16T11:02:42.485Z,100594.02
2019-01-16T11:05:29.345Z,100626.75
2019-01-16T11:08:08.045Z,100619.22
2019-01-16T11:10:47.104Z,100630.69
2019-01-16T11:13:53.370Z,100643.47
2019-01-16T11:16:38.829Z,100633.36
2019-01-16T11:19:30.191Z,100656.83
2019-01-16T11:22:18.474Z,100650.46
2019-01-16T11:25:05.703Z,100657.96
2019-01-16T11:27:52.394Z,100671.45
2019-01-16T11:30:46.549Z,100665.09
2019-01-16T11:33:35.388Z,100668.57
2019-01-16T11:36:23.796Z,100672.34
2019-01-16T11:39:10.725Z,100678.46
2019-01-16T11:41:58.143Z,100670.02
2019-01-16T11:44:49.245Z,100681.41
2019-01-16T11:47:43.403Z,100665.18
2019-01-16T11:50:24.706Z,100671.33
2019-01-16T11:53:12.968Z,100672.67
2019-01-16T11:55:59.910Z,100681.30
2019-01-16T11:58:42.022Z,100674.78
2019-01-16T12:01:21.947Z,100679.97
2019-01-16T12:04:10.232Z,100672.89
2019-01-16T12:06:58.511Z,100674.52
2019-01-16T12:09:46.782Z,100673.22
2019-01-16T12:12:47.131Z,100677.59
2019-01-16T12:15:44.431Z,100681.41
2019-01-16T12:18:44.662Z,100676.29
2019-01-16T12:21:35.997Z,100681.08
2019-01-16T12:24:20.268Z,100669.52
2019-01-16T12:27:07.127Z,100674.37
2019-01-16T12:29:54.249Z,100675.34
2019-01-16T12:32:45.537Z,100679.30
2019-01-16T12:35:36.583Z,100667.75
2019-01-16T12:38:27.619Z,100669.05
2019-01-16T12:41:34.044Z,100671.64
2019-01-16T12:44:15.680Z,100669.42
2019-01-16T12:47:10.957Z,100669.38
2019-01-16T12:49:58.029Z,100663.59
2019-01-16T12:52:54.167Z,100664.78
2019-01-16T12:55:36.815Z,100657.40
2019-01-16T12:58:34.263Z,100664.33
2019-01-16T13:01:31.572Z,100650.52
2019-01-16T13:04:22.797Z,100646.70
2019-01-16T13:07:01.897Z,100636.33
2019-01-16T13:09:49.175Z,100643.18
2019-01-16T13:12:36.187Z,100647.88
2019-01-16T13:15:28.469Z,100652.09
2019-01-16T13:18:29.052Z,100650.36
2019-01-16T13:21:23.627Z,100646.80
2019-01-16T13:24:11.966Z,100639.72
2019-01-16T13:27:00.281Z,100638.62
2019-01-16T13:29:54.794Z,100633.72
2019-01-16T13:32:50.036Z,100628.41
2019-01-16T13:35:37.011Z,100623.15
2019-01-16T13:38:23.041Z,100618.16
2019-01-16T13:41:11.316Z,100616.34
2019-01-16T13:43:58.255Z,100605.84
2019-01-16T13:46:45.128Z,100605.72
2019-01-16T13:49:33.401Z,100594.77
2019-01-16T13:52:21.693Z,100600.20
2019-01-16T13:55:15.821Z,100594.97
2019-01-16T13:58:06.951Z,100584.59
2019-01-16T14:01:01.267Z,100572.37
2019-01-16T14:03:47.972Z,100578.73
2019-01-16T14:06:32.205Z,100573.47
2019-01-16T14:09:23.429Z,100578.17
2019-01-16T14:12:29.875Z,100575.89
2019-01-16T14:15:36.262Z,100574.02
2019-01-16T14:18:23.260Z,100575.67
2019-01-16T14:21:06.509Z,100579.03
2019-01-16T14:23:53.337Z,100580.70
2019-01-16T14:26:53.775Z,100579.72
2019-01-16T14:29:51.173Z,100570.50
2019-01-16T14:32:45.535Z,100563.44
2019-01-16T14:35:51.845Z,100570.25
2019-01-16T14:38:49.084Z,100564.20
2019-01-16T14:41:55.197Z,100559.86
2019-01-16T14:44:42.302Z,100562.53
2019-01-16T14:47:28.889Z,100556.41
2019-01-16T14:50:18.141Z,100559.49
2019-01-16T14:53:04.422Z,100563.03
2019-01-16T14:55:51.823Z,100559.14
2019-01-16T14:58:41.773Z,100556.55
2019-01-16T15:01:45.343Z,100561.23
2019-01-16T15:04:32.286Z,100565.00
2019-01-16T15:07:26.620Z,100553.16
2019-01-16T15:10:13.660Z,100554.09
2019-01-16T15:12:55.461Z,100552.78
2019-01-16T15:15:49.827Z,100549.34
2019-01-16T15:18:36.546Z,100547.59
2019-01-16T15:21:20.034Z,100552.02
2019-01-16T15:24:17.303Z,100549.02
2019-01-16T15:27:05.620Z,100549.11
2019-01-16T15:30:09.170Z,100554.80
2019-01-16T15:33:00.572Z,100544.36
2019-01-16T15:35:47.214Z,100553.50
2019-01-16T15:38:33.008Z,100549.61
2019-01-16T15:41:33.334Z,100551.17
2019-01-16T15:44:27.430Z,100549.79
2019-01-16T15:47:15.825Z,100560.00
2019-01-16T15:50:04.090Z,100552.97
2019-01-16T15:52:51.090Z,100553.02
2019-01-16T15:55:48.581Z,100553.02
2019-01-16T15:58:45.687Z,100553.50
2019-01-16T16:01:34.252Z,100551.80
2019-01-16T16:04:22.531Z,100550.55
2019-01-16T16:07:23.088Z,100553.23
2019-01-16T16:10:26.399Z,100547.73
2019-01-16T16:13:18.868Z,100537.02
2019-01-16T16:15:57.576Z,100534.03
2019-01-16T16:19:02.988Z,100534.47
2019-01-16T16:21:50.223Z,100527.22
2019-01-16T16:24:37.463Z,100538.13
2019-01-16T16:27:32.044Z,100529.09
2019-01-16T16:30:13.284Z,100526.18
2019-01-16T16:32:52.799Z,100533.73
2019-01-16T16:35:50.398Z,100541.13
2019-01-16T16:38:45.954Z,100540.40
2019-01-16T16:41:40.341Z,100530.91
2019-01-16T16:44:20.706Z,100522.81
2019-01-16T16:50:18.164Z,100515.55
2019-01-16T16:53:09.562Z,100515.60
2019-01-16T16:56:00.180Z,100519.17
2019-01-16T16:58:54.547Z,100518.78
2019-01-16T17:01:41.608Z,100515.81
2019-01-16T17:04:29.411Z,100524.95
2019-01-16T17:07:21.975Z,100516.84
2019-01-16T17:10:10.461Z,100515.22
2019-01-16T17:13:09.304Z,100518.42
2019-01-16T17:16:16.910Z,100513.86
2019-01-16T17:19:05.243Z,100521.00
2019-01-16T17:21:54.308Z,100513.47
2019-01-16T17:24:42.921Z,100515.37
2019-01-16T17:27:30.203Z,100512.91
2019-01-16T17:30:34.404Z,100511.73
2019-01-16T17:33:26.873Z,100507.12
2019-01-16T17:36:13.623Z,100509.39
2019-01-16T17:39:17.472Z,100505.25
2019-01-16T17:42:15.237Z,100503.63
2019-01-16T17:45:16.420Z,100501.28
2019-01-16T17:48:03.725Z,100496.75
2019-01-16T17:50:50.653Z,100492.98
2019-01-16T17:53:38.046Z,100495.70
2019-01-16T17:56:39.466Z,100484.92
2019-01-16T17:59:34.713Z,100474.55
2019-01-16T18:02:32.479Z,100468.55
2019-01-16T18:05:27.321Z,100462.08
2019-01-16T18:08:18.882Z,100465.11
2019-01-16T18:11:07.169Z,100461.67
2019-01-16T18:13:52.778Z,100452.65
2019-01-16T18:16:39.673Z,100454.42
2019-01-16T18:19:46.487Z,100456.16
2019-01-16T18:22:31.168Z,100472.16
2019-01-16T18:25:18.319Z,100498.66
2019-01-16T18:28:06.744Z,100485.77
2019-01-16T18:30:55.563Z,100477.63
2019-01-16T18:33:38.422Z,100472.52
2019-01-16T18:36:32.917Z,100461.43
2019-01-16T18:39:24.547Z,100462.47
2019-01-16T18:42:27.754Z,100465.59
2019-01-16T18:45:18.985Z,100467.97
2019-01-16T18:48:04.691Z,100460.77
2019-01-16T18:50:51.466Z,100456.10
2019-01-16T18:53:34.830Z,100444.89
2019-01-16T18:56:15.490Z,100438.86
2019-01-16T18:59:12.909Z,100432.39
2019-01-16T19:02:04.240Z,100429.23
2019-01-16T19:04:41.461Z,100423.08
2019-01-16T19:07:32.842Z,100422.96
2019-01-16T19:10:24.062Z,100417.70
2019-01-16T19:13:24.327Z,100422.88
2019-01-16T19:16:01.116Z,100418.55
2019-01-16T19:18:47.658Z,100413.37
2019-01-16T19:21:41.696Z,100434.50
2019-01-16T19:24:38.875Z,100428.02
2019-01-16T19:27:27.173Z,100416.36
2019-01-16T19:30:14.022Z,100414.55
2019-01-16T19:33:00.800Z,100420.50
2019-01-16T19:35:46.128Z,100414.02
2019-01-16T19:38:43.488Z,100417.98
2019-01-16T19:41:27.148Z,100417.17
2019-01-16T19:44:22.860Z,100423.81
2019-01-16T19:47:17.325Z,100434.63
2019-01-16T19:50:05.678Z,100419.65
2019-01-16T19:52:48.570Z,100414.27
2019-01-16T19:55:35.362Z,100413.49
2019-01-16T19:58:23.726Z,100419.64
2019-01-16T20:00:59.231Z,100427.86
2019-01-16T20:03:48.150Z,100427.86
2019-01-16T20:06:27.072Z,100417.50
2019-01-16T20:09:15.364Z,100415.31
2019-01-16T20:12:19.007Z,100430.41
2019-01-16T20:15:10.350Z,100436.28
2019-01-16T20:18:07.951Z,100431.50
2019-01-16T20:20:55.142Z,100432.40
2019-01-16T20:23:49.210Z,100426.97
2019-01-16T20:26:32.975Z,100415.43
2019-01-16T20:29:19.878Z,100403.48
2019-01-16T20:32:08.171Z,100402.72
2019-01-16T20:34:51.159Z,100391.19
2019-01-16T20:37:37.901Z,100396.04
2019-01-16T20:40:22.096Z,100388.23
2019-01-16T20:42:59.671Z,100391.70
2019-01-16T20:45:36.804Z,100390.29
2019-01-16T20:48:31.268Z,100393.66
2019-01-16T20:51:25.471Z,100401.75
2019-01-16T20:54:16.844Z,100407.21
2019-01-16T20:57:05.887Z,100413.03
2019-01-16T20:59:59.995Z,100416.39
2019-01-16T21:02:48.309Z,100419.58
2019-01-16T21:05:32.356Z,100429.12
2019-01-16T21:08:20.753Z,100419.66
2019-01-16T21:11:09.043Z,100413.30
2019-01-16T21:14:03.238Z,100412.08
2019-01-16T21:17:00.401Z,100410.05
2019-01-16T21:19:54.509Z,100418.80
2019-01-16T21:22:42.554Z,100418.46
2019-01-16T21:25:35.129Z,100414.17
2019-01-16T21:28:21.955Z,100412.52
2019-01-16T21:31:09.448Z,100421.94
2019-01-16T21:33:56.782Z,100427.00
2019-01-16T21:36:43.768Z,100432.95
2019-01-16T21:39:32.060Z,100436.95
2019-01-16T21:42:26.254Z,100453.94
2019-01-16T21:45:32.826Z,100443.84
2019-01-16T21:48:12.701Z,100455.39
2019-01-16T21:51:01.092Z,100465.55
2019-01-16T21:53:51.989Z,100468.59
2019-01-16T21:56:36.347Z,100471.66
2019-01-16T21:59:23.493Z,100472.62
2019-01-16T22:02:30.338Z,100469.66
2019-01-16T22:05:21.504Z,100480.00
2019-01-16T22:08:18.947Z,100478.27
2019-01-16T22:11:16.495Z,100484.22
2019-01-16T22:14:13.950Z,100484.11
2019-01-16T22:17:05.089Z,100491.44
2019-01-16T22:19:47.972Z,100493.44
2019-01-16T22:22:46.820Z,100500.31
2019-01-16T22:25:32.117Z,100494.62
2019-01-16T22:28:19.197Z,100508.34
2019-01-16T22:31:10.383Z,100510.89
2019-01-16T22:33:58.966Z,100516.92
2019-01-16T22:36:46.303Z,100523.31
2019-01-16T22:39:37.641Z,100521.58
2019-01-16T22:42:19.495Z,100527.53
2019-01-16T22:44:59.148Z,100554.34
2019-01-16T22:47:45.933Z,100538.41
2019-01-16T22:50:40.627Z,100543.52
2019-01-16T22:53:43.450Z,100552.13
2019-01-16T22:56:46.342Z,100556.08
2019-01-16T22:59:25.854Z,100560.07
2019-01-16T23:02:14.257Z,100580.00
2019-01-16T23:04:56.011Z,100564.91
2019-01-16T23:07:38.773Z,100577.86
2019-01-16T23:10:31.772Z,100567.50
2019-01-16T23:13:32.496Z,100584.70
2019-01-16T23:16:27.530Z,100594.09
2019-01-16T23:19:21.845Z,100591.47
2019-01-16T23:22:02.277Z,100607.78
2019-01-16T23:24:50.631Z,100604.31
2019-01-16T23:27:45.055Z,100615.85
2019-01-16T23:30:25.002Z,100613.64
2019-01-16T23:33:11.867Z,100614.45
2019-01-16T23:36:09.187Z,100631.66
2019-01-16T23:39:00.657Z,100623.85
2019-01-16T23:42:00.957Z,100637.24
2019-01-16T23:44:55.991Z,100635.55
2019-01-16T23:47:42.739Z,100642.45
2019-01-16T23:50:31.487Z,100659.25
2019-01-16T23:53:18.094Z,100663.58
2019-01-16T23:56:15.556Z,100664.02
2019-01-16T23:59:22.013Z,100659.28
